sensor_id;sensor_type;location;lat;lon;timestamp;temperature;humidity
37426;DHT22;23285;50.180;7.036;2023-05-18T00:02:36;10.10;99.90
37426;DHT22;23285;50.180;7.036;2023-05-18T00:08:11;10.00;99.90
37426;DHT22;23285;50.180;7.036;2023-05-18T00:13:44;10.10;99.90
37426;DHT22;23285;50.180;7.036;2023-05-18T00:16:30;10.10;99.90
37426;DHT22;23285;50.180;7.036;2023-05-18T00:19:16;9.80;99.90
37426;DHT22;23285;50.180;7.036;2023-05-18T00:22:05;9.80;99.90
37426;DHT22;23285;50.180;7.036;2023-05-18T00:27:39;9.50;99.90
37426;DHT22;23285;50.180;7.036;2023-05-18T00:30:26;9.60;99.90
37426;DHT22;23285;50.180;7.036;2023-05-18T00:33:14;9.40;99.90
37426;DHT22;23285;50.180;7.036;2023-05-18T00:36:01;9.70;99.90
37426;DHT22;23285;50.180;7.036;2023-05-18T00:44:23;10.20;99.90
37426;DHT22;23285;50.180;7.036;2023-05-18T00:47:10;9.70;99.90
37426;DHT22;23285;50.180;7.036;2023-05-18T00:55:32;10.00;99.90
37426;DHT22;23285;50.180;7.036;2023-05-18T00:58:19;9.70;99.90
37426;DHT22;23285;50.180;7.036;2023-05-18T01:03:53;10.10;99.90
37426;DHT22;23285;50.180;7.036;2023-05-18T01:09:27;9.80;99.90
37426;DHT22;23285;50.180;7.036;2023-05-18T01:18:01;9.70;99.90
37426;DHT22;23285;50.180;7.036;2023-05-18T01:20:58;10.00;99.90
37426;DHT22;23285;50.180;7.036;2023-05-18T01:23:57;10.10;99.90
37426;DHT22;23285;50.180;7.036;2023-05-18T01:32:21;9.30;99.90
37426;DHT22;23285;50.180;7.036;2023-05-18T01:35:08;9.30;99.90
37426;DHT22;23285;50.180;7.036;2023-05-18T01:37:55;9.30;99.90
37426;DHT22;23285;50.180;7.036;2023-05-18T01:40:50;8.90;99.90
37426;DHT22;23285;50.180;7.036;2023-05-18T01:43:43;8.90;99.90
37426;DHT22;23285;50.180;7.036;2023-05-18T01:46:39;9.20;99.90
37426;DHT22;23285;50.180;7.036;2023-05-18T01:49:31;8.90;99.90
37426;DHT22;23285;50.180;7.036;2023-05-18T01:52:22;8.70;99.90
37426;DHT22;23285;50.180;7.036;2023-05-18T01:57:57;8.70;99.90
37426;DHT22;23285;50.180;7.036;2023-05-18T02:00:47;8.80;99.90
37426;DHT22;23285;50.180;7.036;2023-05-18T02:06:20;9.10;99.90
37426;DHT22;23285;50.180;7.036;2023-05-18T02:09:06;8.80;99.90
37426;DHT22;23285;50.180;7.036;2023-05-18T02:11:53;8.50;99.90
37426;DHT22;23285;50.180;7.036;2023-05-18T02:14:40;8.60;99.90
37426;DHT22;23285;50.180;7.036;2023-05-18T02:17:27;8.70;99.90
37426;DHT22;23285;50.180;7.036;2023-05-18T02:23:02;8.60;99.90
37426;DHT22;23285;50.180;7.036;2023-05-18T02:25:48;8.80;99.90
37426;DHT22;23285;50.180;7.036;2023-05-18T02:28:34;8.60;99.90
37426;DHT22;23285;50.180;7.036;2023-05-18T02:31:23;8.30;99.90
37426;DHT22;23285;50.180;7.036;2023-05-18T02:34:14;8.60;99.90
37426;DHT22;23285;50.180;7.036;2023-05-18T02:37:00;8.50;99.90
37426;DHT22;23285;50.180;7.036;2023-05-18T02:39:48;8.70;99.90
37426;DHT22;23285;50.180;7.036;2023-05-18T02:42:34;8.90;99.90
37426;DHT22;23285;50.180;7.036;2023-05-18T02:45:21;8.70;99.90
37426;DHT22;23285;50.180;7.036;2023-05-18T02:48:07;8.70;99.90
37426;DHT22;23285;50.180;7.036;2023-05-18T02:53:42;8.70;99.90
37426;DHT22;23285;50.180;7.036;2023-05-18T02:59:25;8.60;99.90
37426;DHT22;23285;50.180;7.036;2023-05-18T03:02:11;8.10;99.90
37426;DHT22;23285;50.180;7.036;2023-05-18T03:04:58;7.90;99.90
37426;DHT22;23285;50.180;7.036;2023-05-18T03:07:46;8.10;99.90
37426;DHT22;23285;50.180;7.036;2023-05-18T03:10:36;8.40;99.90
37426;DHT22;23285;50.180;7.036;2023-05-18T03:13:23;8.40;99.90
37426;DHT22;23285;50.180;7.036;2023-05-18T03:16:09;8.40;99.90
37426;DHT22;23285;50.180;7.036;2023-05-18T03:18:57;8.70;99.90
37426;DHT22;23285;50.180;7.036;2023-05-18T03:21:51;8.40;99.90
37426;DHT22;23285;50.180;7.036;2023-05-18T03:24:39;8.20;99.90
37426;DHT22;23285;50.180;7.036;2023-05-18T03:27:29;8.40;99.90
37426;DHT22;23285;50.180;7.036;2023-05-18T03:30:15;8.40;99.90
37426;DHT22;23285;50.180;7.036;2023-05-18T03:33:02;8.40;99.90
37426;DHT22;23285;50.180;7.036;2023-05-18T03:35:49;8.40;99.90
37426;DHT22;23285;50.180;7.036;2023-05-18T03:38:36;8.10;99.90
37426;DHT22;23285;50.180;7.036;2023-05-18T03:41:28;8.20;99.90
37426;DHT22;23285;50.180;7.036;2023-05-18T03:44:15;8.40;99.90
37426;DHT22;23285;50.180;7.036;2023-05-18T03:47:02;8.20;99.90
37426;DHT22;23285;50.180;7.036;2023-05-18T03:52:35;8.10;99.90
37426;DHT22;23285;50.180;7.036;2023-05-18T03:55:21;8.30;99.90
37426;DHT22;23285;50.180;7.036;2023-05-18T03:58:09;8.30;99.90
37426;DHT22;23285;50.180;7.036;2023-05-18T04:03:42;7.90;99.90
37426;DHT22;23285;50.180;7.036;2023-05-18T04:12:02;8.30;99.90
37426;DHT22;23285;50.180;7.036;2023-05-18T04:17:38;8.70;99.90
37426;DHT22;23285;50.180;7.036;2023-05-18T04:20:27;8.50;99.90
37426;DHT22;23285;50.180;7.036;2023-05-18T04:23:13;8.20;99.90
37426;DHT22;23285;50.180;7.036;2023-05-18T04:26:00;8.10;99.90
37426;DHT22;23285;50.180;7.036;2023-05-18T04:31:35;8.20;99.90
37426;DHT22;23285;50.180;7.036;2023-05-18T04:34:22;7.90;99.90
37426;DHT22;23285;50.180;7.036;2023-05-18T04:37:08;7.80;99.90
37426;DHT22;23285;50.180;7.036;2023-05-18T04:39:55;8.10;99.90
37426;DHT22;23285;50.180;7.036;2023-05-18T04:42:43;7.80;99.90
37426;DHT22;23285;50.180;7.036;2023-05-18T04:45:32;7.70;99.90
37426;DHT22;23285;50.180;7.036;2023-05-18T04:48:20;7.50;99.90
37426;DHT22;23285;50.180;7.036;2023-05-18T04:51:07;7.70;99.90
37426;DHT22;23285;50.180;7.036;2023-05-18T04:53:54;7.40;99.90
37426;DHT22;23285;50.180;7.036;2023-05-18T04:56:40;7.70;99.90
37426;DHT22;23285;50.180;7.036;2023-05-18T04:59:26;8.00;99.90
37426;DHT22;23285;50.180;7.036;2023-05-18T05:02:13;8.00;99.90
37426;DHT22;23285;50.180;7.036;2023-05-18T05:05:01;8.20;99.90
37426;DHT22;23285;50.180;7.036;2023-05-18T05:07:48;8.50;99.90
37426;DHT22;23285;50.180;7.036;2023-05-18T05:10:35;8.20;99.90
37426;DHT22;23285;50.180;7.036;2023-05-18T05:13:21;8.10;99.90
37426;DHT22;23285;50.180;7.036;2023-05-18T05:16:07;7.70;99.90
37426;DHT22;23285;50.180;7.036;2023-05-18T05:21:41;7.80;99.90
37426;DHT22;23285;50.180;7.036;2023-05-18T05:24:28;8.10;99.90
37426;DHT22;23285;50.180;7.036;2023-05-18T05:27:14;8.40;99.90
37426;DHT22;23285;50.180;7.036;2023-05-18T05:30:00;8.50;99.90
37426;DHT22;23285;50.180;7.036;2023-05-18T05:32:47;8.30;99.90
37426;DHT22;23285;50.180;7.036;2023-05-18T05:35:33;8.30;99.90
37426;DHT22;23285;50.180;7.036;2023-05-18T05:38:21;8.30;99.90
37426;DHT22;23285;50.180;7.036;2023-05-18T05:41:08;8.30;99.90
37426;DHT22;23285;50.180;7.036;2023-05-18T05:43:55;8.30;99.90
37426;DHT22;23285;50.180;7.036;2023-05-18T05:46:42;8.30;99.90
37426;DHT22;23285;50.180;7.036;2023-05-18T05:49:29;8.50;99.90
37426;DHT22;23285;50.180;7.036;2023-05-18T05:52:16;8.50;99.90
37426;DHT22;23285;50.180;7.036;2023-05-18T05:55:04;8.30;99.90
37426;DHT22;23285;50.180;7.036;2023-05-18T06:00:39;8.50;99.90
37426;DHT22;23285;50.180;7.036;2023-05-18T06:03:25;8.50;99.90
37426;DHT22;23285;50.180;7.036;2023-05-18T06:06:17;8.70;99.90
37426;DHT22;23285;50.180;7.036;2023-05-18T06:09:04;9.10;99.90
37426;DHT22;23285;50.180;7.036;2023-05-18T06:14:40;9.10;99.90
37426;DHT22;23285;50.180;7.036;2023-05-18T06:17:27;8.70;99.90
37426;DHT22;23285;50.180;7.036;2023-05-18T06:23:01;9.40;99.90
37426;DHT22;23285;50.180;7.036;2023-05-18T06:25:59;9.40;99.90
37426;DHT22;23285;50.180;7.036;2023-05-18T06:29:05;9.70;99.90
37426;DHT22;23285;50.180;7.036;2023-05-18T06:32:12;9.90;99.90
37426;DHT22;23285;50.180;7.036;2023-05-18T06:35:01;9.90;99.90
37426;DHT22;23285;50.180;7.036;2023-05-18T06:40:35;9.90;99.90
37426;DHT22;23285;50.180;7.036;2023-05-18T06:43:22;9.70;99.90
37426;DHT22;23285;50.180;7.036;2023-05-18T06:46:20;9.60;99.90
37426;DHT22;23285;50.180;7.036;2023-05-18T06:49:10;9.70;99.90
37426;DHT22;23285;50.180;7.036;2023-05-18T06:51:57;9.80;99.90
37426;DHT22;23285;50.180;7.036;2023-05-18T06:54:43;9.90;99.90
37426;DHT22;23285;50.180;7.036;2023-05-18T06:57:29;10.00;99.90
37426;DHT22;23285;50.180;7.036;2023-05-18T07:00:17;10.30;99.90
37426;DHT22;23285;50.180;7.036;2023-05-18T07:03:06;10.40;99.90
37426;DHT22;23285;50.180;7.036;2023-05-18T07:05:53;10.30;99.90
37426;DHT22;23285;50.180;7.036;2023-05-18T07:08:39;10.50;99.90
37426;DHT22;23285;50.180;7.036;2023-05-18T07:14:12;10.60;99.90
37426;DHT22;23285;50.180;7.036;2023-05-18T07:16:59;10.60;99.90
37426;DHT22;23285;50.180;7.036;2023-05-18T07:25:20;11.20;99.90
37426;DHT22;23285;50.180;7.036;2023-05-18T07:28:06;11.10;99.90
37426;DHT22;23285;50.180;7.036;2023-05-18T07:30:52;11.10;99.90
37426;DHT22;23285;50.180;7.036;2023-05-18T07:33:38;11.10;99.90
37426;DHT22;23285;50.180;7.036;2023-05-18T07:36:26;11.20;99.90
37426;DHT22;23285;50.180;7.036;2023-05-18T07:42:02;11.10;99.90
37426;DHT22;23285;50.180;7.036;2023-05-18T07:44:48;11.50;99.90
37426;DHT22;23285;50.180;7.036;2023-05-18T07:47:34;11.80;99.90
37426;DHT22;23285;50.180;7.036;2023-05-18T07:50:21;12.00;99.90
37426;DHT22;23285;50.180;7.036;2023-05-18T07:53:08;11.90;99.90
37426;DHT22;23285;50.180;7.036;2023-05-18T07:58:41;11.90;99.90
37426;DHT22;23285;50.180;7.036;2023-05-18T08:04:15;12.10;99.90
37426;DHT22;23285;50.180;7.036;2023-05-18T08:09:50;12.20;99.90
37426;DHT22;23285;50.180;7.036;2023-05-18T08:12:36;12.20;99.90
37426;DHT22;23285;50.180;7.036;2023-05-18T08:18:08;12.40;99.90
37426;DHT22;23285;50.180;7.036;2023-05-18T08:20:55;12.80;99.90
37426;DHT22;23285;50.180;7.036;2023-05-18T08:23:41;12.70;99.90
37426;DHT22;23285;50.180;7.036;2023-05-18T08:26:28;13.10;99.90
37426;DHT22;23285;50.180;7.036;2023-05-18T08:29:14;13.60;99.90
37426;DHT22;23285;50.180;7.036;2023-05-18T08:32:01;13.80;99.90
37426;DHT22;23285;50.180;7.036;2023-05-18T08:34:47;14.00;99.90
37426;DHT22;23285;50.180;7.036;2023-05-18T08:37:35;13.80;99.90
37426;DHT22;23285;50.180;7.036;2023-05-18T08:40:23;13.90;99.90
37426;DHT22;23285;50.180;7.036;2023-05-18T08:43:20;14.00;99.90
37426;DHT22;23285;50.180;7.036;2023-05-18T08:46:14;14.10;99.90
37426;DHT22;23285;50.180;7.036;2023-05-18T08:49:05;14.20;99.90
37426;DHT22;23285;50.180;7.036;2023-05-18T08:51:54;14.40;99.90
37426;DHT22;23285;50.180;7.036;2023-05-18T08:54:41;14.10;99.90
37426;DHT22;23285;50.180;7.036;2023-05-18T09:03:04;14.40;99.90
37426;DHT22;23285;50.180;7.036;2023-05-18T09:05:51;14.70;99.90
37426;DHT22;23285;50.180;7.036;2023-05-18T09:08:38;14.70;99.90
37426;DHT22;23285;50.180;7.036;2023-05-18T09:14:12;15.00;99.90
37426;DHT22;23285;50.180;7.036;2023-05-18T09:17:00;14.90;99.70
37426;DHT22;23285;50.180;7.036;2023-05-18T09:19:47;14.60;99.60
37426;DHT22;23285;50.180;7.036;2023-05-18T09:25:20;15.00;99.90
37426;DHT22;23285;50.180;7.036;2023-05-18T09:28:09;15.00;99.60
37426;DHT22;23285;50.180;7.036;2023-05-18T09:30:55;15.00;98.30
37426;DHT22;23285;50.180;7.036;2023-05-18T09:33:44;15.00;98.10
37426;DHT22;23285;50.180;7.036;2023-05-18T09:39:18;14.80;98.90
37426;DHT22;23285;50.180;7.036;2023-05-18T09:42:04;14.90;98.60
37426;DHT22;23285;50.180;7.036;2023-05-18T09:44:51;14.60;99.10
37426;DHT22;23285;50.180;7.036;2023-05-18T09:47:37;14.70;99.20
37426;DHT22;23285;50.180;7.036;2023-05-18T09:50:25;14.90;97.90
37426;DHT22;23285;50.180;7.036;2023-05-18T09:53:13;14.80;99.00
37426;DHT22;23285;50.180;7.036;2023-05-18T09:56:02;14.70;97.80
37426;DHT22;23285;50.180;7.036;2023-05-18T09:58:49;14.90;98.50
37426;DHT22;23285;50.180;7.036;2023-05-18T10:01:36;15.20;97.90
37426;DHT22;23285;50.180;7.036;2023-05-18T10:04:22;15.30;97.30
37426;DHT22;23285;50.180;7.036;2023-05-18T10:07:21;15.50;99.00
37426;DHT22;23285;50.180;7.036;2023-05-18T10:10:09;15.40;98.20
37426;DHT22;23285;50.180;7.036;2023-05-18T10:12:56;15.00;99.30
37426;DHT22;23285;50.180;7.036;2023-05-18T10:15:47;15.00;98.10
37426;DHT22;23285;50.180;7.036;2023-05-18T10:18:35;15.20;97.90
37426;DHT22;23285;50.180;7.036;2023-05-18T10:21:23;15.80;98.60
37426;DHT22;23285;50.180;7.036;2023-05-18T10:24:16;16.10;98.40
37426;DHT22;23285;50.180;7.036;2023-05-18T10:29:55;16.10;98.50
37426;DHT22;23285;50.180;7.036;2023-05-18T10:32:43;15.60;98.00
37426;DHT22;23285;50.180;7.036;2023-05-18T10:35:31;15.70;98.10
37426;DHT22;23285;50.180;7.036;2023-05-18T10:38:20;15.40;98.20
37426;DHT22;23285;50.180;7.036;2023-05-18T10:49:35;16.60;99.10
37426;DHT22;23285;50.180;7.036;2023-05-18T10:52:22;16.60;97.90
37426;DHT22;23285;50.180;7.036;2023-05-18T10:55:10;16.80;97.60
37426;DHT22;23285;50.180;7.036;2023-05-18T11:00:51;16.30;98.20
37426;DHT22;23285;50.180;7.036;2023-05-18T11:03:38;16.40;97.30
37426;DHT22;23285;50.180;7.036;2023-05-18T11:09:22;16.90;98.80
37426;DHT22;23285;50.180;7.036;2023-05-18T11:15:00;16.90;98.20
37426;DHT22;23285;50.180;7.036;2023-05-18T11:18:12;17.00;98.30
37426;DHT22;23285;50.180;7.036;2023-05-18T11:20:59;17.20;97.70
37426;DHT22;23285;50.180;7.036;2023-05-18T11:24:14;17.20;97.70
37426;DHT22;23285;50.180;7.036;2023-05-18T11:29:53;16.70;97.20
37426;DHT22;23285;50.180;7.036;2023-05-18T11:32:49;16.90;96.80
37426;DHT22;23285;50.180;7.036;2023-05-18T11:38:52;17.10;97.40
37426;DHT22;23285;50.180;7.036;2023-05-18T11:44:27;17.40;96.00
37426;DHT22;23285;50.180;7.036;2023-05-18T11:47:14;17.30;96.20
37426;DHT22;23285;50.180;7.036;2023-05-18T11:50:05;17.50;97.00
37426;DHT22;23285;50.180;7.036;2023-05-18T11:52:52;17.80;95.80
37426;DHT22;23285;50.180;7.036;2023-05-18T12:04:02;17.30;94.80
37426;DHT22;23285;50.180;7.036;2023-05-18T12:06:51;17.30;96.60
37426;DHT22;23285;50.180;7.036;2023-05-18T12:12:29;17.50;96.10
37426;DHT22;23285;50.180;7.036;2023-05-18T12:15:20;17.80;96.20
37426;DHT22;23285;50.180;7.036;2023-05-18T12:23:41;18.10;95.50
37426;DHT22;23285;50.180;7.036;2023-05-18T12:26:29;18.30;95.10
37426;DHT22;23285;50.180;7.036;2023-05-18T12:29:15;18.40;95.60
37426;DHT22;23285;50.180;7.036;2023-05-18T12:32:05;18.30;93.60
37426;DHT22;23285;50.180;7.036;2023-05-18T12:40:34;17.80;95.20
37426;DHT22;23285;50.180;7.036;2023-05-18T12:43:32;18.30;97.10
37426;DHT22;23285;50.180;7.036;2023-05-18T12:46:20;18.30;96.00
37426;DHT22;23285;50.180;7.036;2023-05-18T12:49:07;18.40;95.30
37426;DHT22;23285;50.180;7.036;2023-05-18T12:51:54;18.40;95.50
37426;DHT22;23285;50.180;7.036;2023-05-18T12:54:48;18.80;95.60
37426;DHT22;23285;50.180;7.036;2023-05-18T13:00:33;18.70;94.60
37426;DHT22;23285;50.180;7.036;2023-05-18T13:03:19;18.90;94.40
37426;DHT22;23285;50.180;7.036;2023-05-18T13:06:07;18.30;96.00
37426;DHT22;23285;50.180;7.036;2023-05-18T13:08:54;18.20;95.60
37426;DHT22;23285;50.180;7.036;2023-05-18T13:11:45;18.30;94.20
37426;DHT22;23285;50.180;7.036;2023-05-18T13:14:36;18.20;95.50
37426;DHT22;23285;50.180;7.036;2023-05-18T13:17:23;18.50;94.50
37426;DHT22;23285;50.180;7.036;2023-05-18T13:20:13;18.40;94.50
37426;DHT22;23285;50.180;7.036;2023-05-18T13:25:49;18.50;94.60
37426;DHT22;23285;50.180;7.036;2023-05-18T13:28:36;18.80;94.70
37426;DHT22;23285;50.180;7.036;2023-05-18T13:31:23;19.10;94.20
37426;DHT22;23285;50.180;7.036;2023-05-18T13:34:09;19.50;95.00
37426;DHT22;23285;50.180;7.036;2023-05-18T13:36:56;19.40;94.00
37426;DHT22;23285;50.180;7.036;2023-05-18T13:42:32;18.90;94.20
37426;DHT22;23285;50.180;7.036;2023-05-18T13:48:07;19.70;93.70
37426;DHT22;23285;50.180;7.036;2023-05-18T13:50:54;19.90;93.20
37426;DHT22;23285;50.180;7.036;2023-05-18T13:53:40;19.50;93.40
37426;DHT22;23285;50.180;7.036;2023-05-18T13:56:27;18.80;92.80
37426;DHT22;23285;50.180;7.036;2023-05-18T13:59:13;18.90;93.60
37426;DHT22;23285;50.180;7.036;2023-05-18T14:02:03;19.20;92.90
37426;DHT22;23285;50.180;7.036;2023-05-18T14:04:50;18.80;93.10
37426;DHT22;23285;50.180;7.036;2023-05-18T14:07:38;18.80;92.90
37426;DHT22;23285;50.180;7.036;2023-05-18T14:10:25;18.90;93.30
37426;DHT22;23285;50.180;7.036;2023-05-18T14:13:11;19.40;93.20
37426;DHT22;23285;50.180;7.036;2023-05-18T14:18:44;19.30;93.80
37426;DHT22;23285;50.180;7.036;2023-05-18T14:24:18;19.80;92.70
37426;DHT22;23285;50.180;7.036;2023-05-18T14:27:04;19.80;91.10
37426;DHT22;23285;50.180;7.036;2023-05-18T14:29:50;19.80;90.60
37426;DHT22;23285;50.180;7.036;2023-05-18T14:32:37;19.80;91.50
37426;DHT22;23285;50.180;7.036;2023-05-18T14:35:23;20.10;90.80
37426;DHT22;23285;50.180;7.036;2023-05-18T14:38:10;20.20;91.00
37426;DHT22;23285;50.180;7.036;2023-05-18T14:43:43;20.20;92.60
37426;DHT22;23285;50.180;7.036;2023-05-18T14:46:31;20.50;91.40
37426;DHT22;23285;50.180;7.036;2023-05-18T14:49:17;20.40;91.90
37426;DHT22;23285;50.180;7.036;2023-05-18T14:52:04;20.90;92.60
37426;DHT22;23285;50.180;7.036;2023-05-18T14:54:51;20.90;91.40
37426;DHT22;23285;50.180;7.036;2023-05-18T14:57:39;20.50;90.60
37426;DHT22;23285;50.180;7.036;2023-05-18T15:00:26;20.00;89.60
37426;DHT22;23285;50.180;7.036;2023-05-18T15:03:12;19.90;89.70
37426;DHT22;23285;50.180;7.036;2023-05-18T15:05:59;19.60;90.70
37426;DHT22;23285;50.180;7.036;2023-05-18T15:08:45;20.10;90.30
37426;DHT22;23285;50.180;7.036;2023-05-18T15:11:32;20.10;90.80
37426;DHT22;23285;50.180;7.036;2023-05-18T15:14:19;20.10;89.50
37426;DHT22;23285;50.180;7.036;2023-05-18T15:19:52;20.40;90.40
37426;DHT22;23285;50.180;7.036;2023-05-18T15:25:25;20.50;90.70
37426;DHT22;23285;50.180;7.036;2023-05-18T15:30:59;20.00;91.10
37426;DHT22;23285;50.180;7.036;2023-05-18T15:33:44;20.20;90.30
37426;DHT22;23285;50.180;7.036;2023-05-18T15:36:31;20.70;90.50
37426;DHT22;23285;50.180;7.036;2023-05-18T15:39:17;20.80;90.70
37426;DHT22;23285;50.180;7.036;2023-05-18T15:42:04;20.50;89.40
37426;DHT22;23285;50.180;7.036;2023-05-18T15:44:52;20.60;90.20
37426;DHT22;23285;50.180;7.036;2023-05-18T15:50:25;20.60;91.30
37426;DHT22;23285;50.180;7.036;2023-05-18T15:53:12;20.50;89.50
37426;DHT22;23285;50.180;7.036;2023-05-18T15:58:46;20.40;90.30
37426;DHT22;23285;50.180;7.036;2023-05-18T16:01:34;20.40;90.40
37426;DHT22;23285;50.180;7.036;2023-05-18T16:04:20;20.10;89.60
37426;DHT22;23285;50.180;7.036;2023-05-18T16:09:53;20.70;91.20
37426;DHT22;23285;50.180;7.036;2023-05-18T16:12:39;20.60;88.70
37426;DHT22;23285;50.180;7.036;2023-05-18T16:18:13;20.00;90.50
37426;DHT22;23285;50.180;7.036;2023-05-18T16:20:59;19.70;90.40
37426;DHT22;23285;50.180;7.036;2023-05-18T16:23:45;20.00;90.40
37426;DHT22;23285;50.180;7.036;2023-05-18T16:26:31;19.90;89.70
37426;DHT22;23285;50.180;7.036;2023-05-18T16:32:05;19.80;91.30
37426;DHT22;23285;50.180;7.036;2023-05-18T16:34:53;19.90;89.90
37426;DHT22;23285;50.180;7.036;2023-05-18T16:37:40;20.50;89.30
37426;DHT22;23285;50.180;7.036;2023-05-18T16:45:59;19.60;90.80
37426;DHT22;23285;50.180;7.036;2023-05-18T16:48:45;19.70;89.10
37426;DHT22;23285;50.180;7.036;2023-05-18T16:51:32;19.90;89.70
37426;DHT22;23285;50.180;7.036;2023-05-18T16:54:19;19.80;89.60
37426;DHT22;23285;50.180;7.036;2023-05-18T16:57:05;19.60;90.10
37426;DHT22;23285;50.180;7.036;2023-05-18T16:59:51;19.20;89.90
37426;DHT22;23285;50.180;7.036;2023-05-18T17:02:38;19.60;90.40
37426;DHT22;23285;50.180;7.036;2023-05-18T17:05:24;20.10;89.70
37426;DHT22;23285;50.180;7.036;2023-05-18T17:08:12;19.80;90.10
37426;DHT22;23285;50.180;7.036;2023-05-18T17:10:58;19.70;88.10
37426;DHT22;23285;50.180;7.036;2023-05-18T17:16:31;19.60;90.70
37426;DHT22;23285;50.180;7.036;2023-05-18T17:19:23;19.50;88.40
37426;DHT22;23285;50.180;7.036;2023-05-18T17:22:10;19.80;89.40
37426;DHT22;23285;50.180;7.036;2023-05-18T17:24:58;19.30;89.40
37426;DHT22;23285;50.180;7.036;2023-05-18T17:30:30;19.70;89.90
37426;DHT22;23285;50.180;7.036;2023-05-18T17:33:16;19.80;88.70
37426;DHT22;23285;50.180;7.036;2023-05-18T17:38:49;18.60;91.20
37426;DHT22;23285;50.180;7.036;2023-05-18T17:41:37;18.80;88.90
37426;DHT22;23285;50.180;7.036;2023-05-18T17:47:10;19.00;90.90
37426;DHT22;23285;50.180;7.036;2023-05-18T17:49:56;18.60;89.40
37426;DHT22;23285;50.180;7.036;2023-05-18T17:52:43;18.40;90.10
37426;DHT22;23285;50.180;7.036;2023-05-18T17:55:30;18.60;90.00
37426;DHT22;23285;50.180;7.036;2023-05-18T17:58:18;18.50;90.50
37426;DHT22;23285;50.180;7.036;2023-05-18T18:01:04;18.60;90.80
37426;DHT22;23285;50.180;7.036;2023-05-18T18:03:52;18.50;90.60
37426;DHT22;23285;50.180;7.036;2023-05-18T18:09:26;18.90;92.00
37426;DHT22;23285;50.180;7.036;2023-05-18T18:12:12;19.10;90.30
37426;DHT22;23285;50.180;7.036;2023-05-18T18:15:00;18.70;89.60
37426;DHT22;23285;50.180;7.036;2023-05-18T18:20:36;18.20;92.30
37426;DHT22;23285;50.180;7.036;2023-05-18T18:23:22;18.20;91.30
37426;DHT22;23285;50.180;7.036;2023-05-18T18:26:08;18.10;91.10
37426;DHT22;23285;50.180;7.036;2023-05-18T18:28:55;18.30;91.10
37426;DHT22;23285;50.180;7.036;2023-05-18T18:31:42;17.90;91.40
37426;DHT22;23285;50.180;7.036;2023-05-18T18:34:28;18.30;91.10
37426;DHT22;23285;50.180;7.036;2023-05-18T18:37:14;17.60;91.90
37426;DHT22;23285;50.180;7.036;2023-05-18T18:40:01;17.50;91.90
37426;DHT22;23285;50.180;7.036;2023-05-18T18:42:48;17.10;92.10
37426;DHT22;23285;50.180;7.036;2023-05-18T18:45:34;17.10;92.30
37426;DHT22;23285;50.180;7.036;2023-05-18T18:51:08;17.00;93.30
37426;DHT22;23285;50.180;7.036;2023-05-18T18:53:55;17.00;93.80
37426;DHT22;23285;50.180;7.036;2023-05-18T18:56:41;16.70;93.70
37426;DHT22;23285;50.180;7.036;2023-05-18T18:59:28;16.60;94.10
37426;DHT22;23285;50.180;7.036;2023-05-18T19:02:14;16.40;94.50
37426;DHT22;23285;50.180;7.036;2023-05-18T19:05:05;16.40;94.60
37426;DHT22;23285;50.180;7.036;2023-05-18T19:07:52;16.10;95.30
37426;DHT22;23285;50.180;7.036;2023-05-18T19:10:39;16.20;95.40
37426;DHT22;23285;50.180;7.036;2023-05-18T19:13:25;16.00;96.10
37426;DHT22;23285;50.180;7.036;2023-05-18T19:19:00;16.50;95.80
37426;DHT22;23285;50.180;7.036;2023-05-18T19:21:53;16.70;96.10
37426;DHT22;23285;50.180;7.036;2023-05-18T19:24:40;16.70;96.10
37426;DHT22;23285;50.180;7.036;2023-05-18T19:27:26;16.70;96.10
37426;DHT22;23285;50.180;7.036;2023-05-18T19:33:05;16.80;96.20
37426;DHT22;23285;50.180;7.036;2023-05-18T19:35:51;16.50;96.40
37426;DHT22;23285;50.180;7.036;2023-05-18T19:38:40;16.40;96.50
37426;DHT22;23285;50.180;7.036;2023-05-18T19:47:00;16.00;97.40
37426;DHT22;23285;50.180;7.036;2023-05-18T19:49:46;16.10;97.00
37426;DHT22;23285;50.180;7.036;2023-05-18T19:52:33;16.10;96.80
37426;DHT22;23285;50.180;7.036;2023-05-18T19:55:21;16.40;96.90
37426;DHT22;23285;50.180;7.036;2023-05-18T19:58:07;16.30;96.40
37426;DHT22;23285;50.180;7.036;2023-05-18T20:00:54;16.10;96.70
37426;DHT22;23285;50.180;7.036;2023-05-18T20:03:41;15.70;97.00
37426;DHT22;23285;50.180;7.036;2023-05-18T20:14:50;15.00;97.50
37426;DHT22;23285;50.180;7.036;2023-05-18T20:17:36;14.90;97.40
37426;DHT22;23285;50.180;7.036;2023-05-18T20:26:00;14.70;98.30
37426;DHT22;23285;50.180;7.036;2023-05-18T20:28:48;14.90;97.20
37426;DHT22;23285;50.180;7.036;2023-05-18T20:31:34;15.00;97.40
37426;DHT22;23285;50.180;7.036;2023-05-18T20:34:21;15.40;97.10
37426;DHT22;23285;50.180;7.036;2023-05-18T20:37:07;15.40;96.90
37426;DHT22;23285;50.180;7.036;2023-05-18T20:39:53;15.20;96.80
37426;DHT22;23285;50.180;7.036;2023-05-18T20:42:41;15.10;97.00
37426;DHT22;23285;50.180;7.036;2023-05-18T20:51:08;14.60;97.90
37426;DHT22;23285;50.180;7.036;2023-05-18T20:53:59;14.60;97.30
37426;DHT22;23285;50.180;7.036;2023-05-18T20:56:46;14.50;97.50
37426;DHT22;23285;50.180;7.036;2023-05-18T21:02:20;14.60;98.40
37426;DHT22;23285;50.180;7.036;2023-05-18T21:05:06;14.70;97.60
37426;DHT22;23285;50.180;7.036;2023-05-18T21:07:53;14.70;97.70
37426;DHT22;23285;50.180;7.036;2023-05-18T21:10:39;14.50;97.70
37426;DHT22;23285;50.180;7.036;2023-05-18T21:13:25;14.50;97.30
37426;DHT22;23285;50.180;7.036;2023-05-18T21:16:12;14.60;97.50
37426;DHT22;23285;50.180;7.036;2023-05-18T21:18:59;14.60;97.70
37426;DHT22;23285;50.180;7.036;2023-05-18T21:21:45;14.10;97.70
37426;DHT22;23285;50.180;7.036;2023-05-18T21:24:31;14.00;98.00
37426;DHT22;23285;50.180;7.036;2023-05-18T21:27:18;14.20;97.90
37426;DHT22;23285;50.180;7.036;2023-05-18T21:30:05;14.00;98.10
37426;DHT22;23285;50.180;7.036;2023-05-18T21:32:51;14.00;98.20
37426;DHT22;23285;50.180;7.036;2023-05-18T21:35:39;14.30;98.00
37426;DHT22;23285;50.180;7.036;2023-05-18T21:38:25;14.10;97.90
37426;DHT22;23285;50.180;7.036;2023-05-18T21:41:12;13.80;97.80
37426;DHT22;23285;50.180;7.036;2023-05-18T21:46:44;13.20;99.80
37426;DHT22;23285;50.180;7.036;2023-05-18T21:49:30;13.30;99.40
37426;DHT22;23285;50.180;7.036;2023-05-18T21:52:19;13.20;98.90
37426;DHT22;23285;50.180;7.036;2023-05-18T21:55:06;13.10;99.30
37426;DHT22;23285;50.180;7.036;2023-05-18T21:57:52;13.50;99.40
37426;DHT22;23285;50.180;7.036;2023-05-18T22:00:39;13.60;98.30
37426;DHT22;23285;50.180;7.036;2023-05-18T22:03:25;13.90;98.40
37426;DHT22;23285;50.180;7.036;2023-05-18T22:06:12;13.60;98.30
37426;DHT22;23285;50.180;7.036;2023-05-18T22:08:59;13.60;98.00
37426;DHT22;23285;50.180;7.036;2023-05-18T22:11:46;13.60;98.30
37426;DHT22;23285;50.180;7.036;2023-05-18T22:14:32;13.40;97.90
37426;DHT22;23285;50.180;7.036;2023-05-18T22:17:18;13.10;98.90